createdAt,value
2023-02-14T00:00:09.552Z,68.20
2023-02-14T00:00:19.565Z,67.38
2023-02-14T00:00:29.571Z,67.02
2023-02-14T00:00:39.551Z,66.14
2023-02-14T00:00:49.576Z,66.78
2023-02-14T00:00:59.999Z,65.95
2023-02-14T00:01:09.566Z,65.07
2023-02-14T00:01:19.573Z,64.84
2023-02-14T00:01:29.591Z,64.09
2023-02-14T00:01:39.573Z,63.91
2023-02-14T00:01:49.588Z,64.02
2023-02-14T00:01:59.576Z,64.59
2023-02-14T00:02:09.564Z,67.50
2023-02-14T00:02:19.659Z,70.65
2023-02-14T00:02:29.634Z,73.47
2023-02-14T00:02:39.683Z,74.24
2023-02-14T00:02:49.659Z,74.57
2023-02-14T00:02:59.593Z,73.06
2023-02-14T00:03:09.692Z,74.92
2023-02-14T00:03:19.591Z,74.95
2023-02-14T00:03:29.569Z,75.21
2023-02-14T00:03:39.581Z,75.67
2023-02-14T00:03:49.624Z,74.71
2023-02-14T00:03:59.568Z,73.65
2023-02-14T00:04:09.691Z,74.38
2023-02-14T00:04:19.655Z,75.14
2023-02-14T00:04:29.622Z,74.08
2023-02-14T00:04:39.595Z,73.82
2023-02-14T00:04:49.589Z,76.95
2023-02-14T00:04:59.650Z,79.12
2023-02-14T00:05:09.571Z,79.53
2023-02-14T00:05:19.572Z,80.07
2023-02-14T00:05:29.583Z,79.84
2023-02-14T00:05:39.565Z,78.66
2023-02-14T00:05:49.582Z,76.44
2023-02-14T00:05:59.594Z,76.31
2023-02-14T00:06:09.610Z,73.87
2023-02-14T00:06:19.571Z,72.86
2023-02-14T00:06:29.595Z,71.36
2023-02-14T00:06:39.578Z,73.11
2023-02-14T00:06:49.567Z,70.31
2023-02-14T00:06:59.572Z,70.90
2023-02-14T00:07:09.569Z,69.61
2023-02-14T00:07:19.560Z,70.47
2023-02-14T00:07:29.598Z,68.95
2023-02-14T00:07:39.578Z,70.36
2023-02-14T00:07:49.566Z,70.71
2023-02-14T00:07:59.551Z,72.08
2023-02-14T00:08:09.571Z,71.25
2023-02-14T00:08:19.580Z,70.31
2023-02-14T00:08:29.579Z,69.96
2023-02-14T00:08:39.569Z,71.33
2023-02-14T00:08:49.563Z,70.04
2023-02-14T00:08:59.569Z,70.13
2023-02-14T00:09:09.584Z,70.73
2023-02-14T00:09:19.586Z,70.23
2023-02-14T00:09:29.572Z,68.50
2023-02-14T00:09:39.555Z,65.92
2023-02-14T00:09:49.592Z,62.30
2023-02-14T00:09:59.610Z,60.07
2023-02-14T00:10:09.607Z,59.29
2023-02-14T00:10:19.613Z,57.88
2023-02-14T00:10:29.615Z,57.58
2023-02-14T00:10:39.631Z,58.12
2023-02-14T00:10:49.651Z,57.15
2023-02-14T00:11:00.071Z,57.44
2023-02-14T00:11:09.621Z,56.93
2023-02-14T00:11:19.664Z,55.65
2023-02-14T00:11:29.634Z,54.09
2023-02-14T00:11:39.657Z,54.00
2023-02-14T00:11:49.640Z,53.28
2023-02-14T00:11:59.631Z,53.05
2023-02-14T00:12:09.629Z,53.56
2023-02-14T00:12:19.624Z,52.69
2023-02-14T00:12:29.717Z,53.21
2023-02-14T00:12:39.628Z,52.86
2023-02-14T00:12:49.652Z,52.15
2023-02-14T00:12:59.649Z,52.76
2023-02-14T00:13:09.625Z,51.97
2023-02-14T00:13:19.656Z,53.01
2023-02-14T00:13:29.638Z,53.59
2023-02-14T00:13:39.634Z,53.39
2023-02-14T00:13:49.628Z,53.16
2023-02-14T00:13:59.654Z,52.67
2023-02-14T00:14:09.657Z,53.44
2023-02-14T00:14:19.670Z,54.71
2023-02-14T00:14:29.655Z,54.83
2023-02-14T00:14:39.630Z,53.68
2023-02-14T00:14:49.656Z,55.04
2023-02-14T00:14:59.649Z,55.00
2023-02-14T00:15:09.638Z,54.56
2023-02-14T00:15:19.646Z,53.39
2023-02-14T00:15:29.674Z,54.10
2023-02-14T00:15:39.650Z,53.22
2023-02-14T00:15:49.649Z,52.98
2023-02-14T00:15:59.715Z,52.77
2023-02-14T00:16:09.636Z,52.51
2023-02-14T00:16:19.706Z,51.59
2023-02-14T00:16:29.647Z,51.52
2023-02-14T00:16:39.646Z,50.82
2023-02-14T00:16:49.653Z,51.14
2023-02-14T00:16:59.645Z,51.19
2023-02-14T00:17:09.664Z,51.86
2023-02-14T00:17:19.654Z,51.27
2023-02-14T00:17:29.743Z,52.07
2023-02-14T00:17:39.666Z,52.32
2023-02-14T00:17:49.687Z,52.12
2023-02-14T00:17:59.874Z,50.89
2023-02-14T00:18:09.691Z,50.88
2023-02-14T00:18:19.848Z,50.68
2023-02-14T00:18:29.707Z,51.31
2023-02-14T00:18:39.727Z,51.25
2023-02-14T00:18:49.753Z,51.61
2023-02-14T00:18:59.737Z,52.90
2023-02-14T00:19:09.751Z,53.73
2023-02-14T00:19:19.760Z,54.36
2023-02-14T00:19:29.762Z,55.44
2023-02-14T00:19:39.759Z,54.15
2023-02-14T00:19:49.789Z,53.40
2023-02-14T00:19:59.786Z,52.94
2023-02-14T00:20:09.815Z,52.84
2023-02-14T00:20:19.823Z,52.97
2023-02-14T00:20:29.818Z,53.57
2023-02-14T00:20:39.824Z,54.66
2023-02-14T00:20:49.842Z,55.57
2023-02-14T00:21:00.118Z,56.60
2023-02-14T00:21:09.845Z,56.66
2023-02-14T00:21:19.829Z,56.14
2023-02-14T00:21:29.846Z,56.93
2023-02-14T00:21:39.851Z,57.94
2023-02-14T00:21:49.833Z,58.87
2023-02-14T00:21:59.837Z,58.47
2023-02-14T00:22:09.866Z,58.14
2023-02-14T00:22:19.828Z,58.58
2023-02-14T00:22:29.921Z,56.58
2023-02-14T00:22:39.844Z,56.74
2023-02-14T00:22:49.854Z,57.63
2023-02-14T00:22:59.837Z,55.34
2023-02-14T00:23:09.843Z,55.46
2023-02-14T00:23:19.837Z,56.99
2023-02-14T00:23:29.830Z,59.17
2023-02-14T00:23:39.842Z,61.40
2023-02-14T00:23:49.839Z,66.38
2023-02-14T00:23:59.861Z,68.34
2023-02-14T00:24:09.853Z,69.53
2023-02-14T00:24:19.809Z,70.89
2023-02-14T00:24:29.816Z,75.40
2023-02-14T00:24:39.835Z,78.05
2023-02-14T00:24:49.842Z,82.39
2023-02-14T00:24:59.854Z,87.71
2023-02-14T00:25:09.811Z,93.98
2023-02-14T00:25:19.831Z,95.61
2023-02-14T00:25:29.825Z,98.39
2023-02-14T00:25:39.812Z,98.16
2023-02-14T00:25:49.804Z,100.60
2023-02-14T00:25:59.821Z,100.52
2023-02-14T00:26:09.809Z,102.70
2023-02-14T00:26:19.832Z,108.17
2023-02-14T00:26:29.819Z,110.19
2023-02-14T00:26:39.813Z,112.51
2023-02-14T00:26:49.856Z,114.34
2023-02-14T00:26:59.830Z,113.84
2023-02-14T00:27:09.856Z,112.74
2023-02-14T00:27:19.890Z,112.47
2023-02-14T00:27:29.889Z,110.04
2023-02-14T00:27:39.921Z,111.75
2023-02-14T00:27:49.884Z,110.25
2023-02-14T00:27:59.929Z,112.05
2023-02-14T00:28:09.890Z,110.64
2023-02-14T00:28:19.921Z,112.22
2023-02-14T00:28:29.904Z,110.81
2023-02-14T00:28:39.915Z,109.33
2023-02-14T00:28:49.945Z,112.39
2023-02-14T00:28:59.958Z,116.39
2023-02-14T00:29:09.936Z,116.67
2023-02-14T00:29:19.944Z,115.54
2023-02-14T00:29:29.975Z,115.38
2023-02-14T00:29:39.975Z,111.59
2023-02-14T00:29:50.012Z,106.39
2023-02-14T00:30:00.050Z,104.57
2023-02-14T00:30:10.031Z,100.18
2023-02-14T00:30:20.132Z,95.28
2023-02-14T00:30:30.189Z,93.81
2023-02-14T00:30:40.068Z,93.07
2023-02-14T00:30:50.093Z,93.16
2023-02-14T00:31:00.273Z,94.07
2023-02-14T00:31:10.149Z,93.75
2023-02-14T00:31:20.106Z,96.81
2023-02-14T00:31:30.127Z,95.96
2023-02-14T00:31:40.153Z,96.95
2023-02-14T00:31:50.162Z,96.43
2023-02-14T00:32:00.059Z,95.32
2023-02-14T00:32:10.134Z,93.59
2023-02-14T00:32:20.059Z,93.44
2023-02-14T00:32:30.030Z,90.97
2023-02-14T00:32:40.112Z,86.49
2023-02-14T00:32:50.048Z,84.27
2023-02-14T00:33:00.035Z,83.71
2023-02-14T00:33:10.040Z,83.64
2023-02-14T00:33:20.038Z,82.36
2023-02-14T00:33:30.038Z,81.18
2023-02-14T00:33:40.028Z,81.11
2023-02-14T00:33:50.054Z,80.53
2023-02-14T00:34:00.057Z,80.44
2023-02-14T00:34:10.019Z,79.12
2023-02-14T00:34:20.070Z,73.85
2023-02-14T00:34:30.067Z,70.60
2023-02-14T00:34:40.057Z,68.04
2023-02-14T00:34:50.109Z,63.49
2023-02-14T00:35:00.071Z,62.45
2023-02-14T00:35:10.114Z,59.91
2023-02-14T00:35:20.105Z,57.81
2023-02-14T00:35:30.122Z,56.81
2023-02-14T00:35:40.092Z,56.33
2023-02-14T00:35:50.152Z,55.87
2023-02-14T00:36:00.143Z,54.67
2023-02-14T00:36:10.129Z,55.05
2023-02-14T00:36:20.195Z,55.64
2023-02-14T00:36:30.151Z,55.78
2023-02-14T00:36:40.153Z,57.16
2023-02-14T00:36:50.188Z,58.78
2023-02-14T00:37:00.179Z,60.59
2023-02-14T00:37:10.189Z,61.90
2023-02-14T00:37:20.216Z,62.79
2023-02-14T00:37:30.206Z,64.33
2023-02-14T00:37:40.260Z,64.86
2023-02-14T00:37:50.247Z,65.92
2023-02-14T00:38:00.229Z,68.07
2023-02-14T00:38:10.223Z,70.33
2023-02-14T00:38:20.257Z,69.19
2023-02-14T00:38:30.261Z,70.21
2023-02-14T00:38:40.272Z,70.38
2023-02-14T00:38:50.281Z,70.68
2023-02-14T00:39:00.277Z,72.85
2023-02-14T00:39:10.296Z,71.31
2023-02-14T00:39:20.302Z,71.15
2023-02-14T00:39:30.315Z,71.15
2023-02-14T00:39:40.313Z,70.97
2023-02-14T00:39:50.340Z,70.65
2023-02-14T00:40:00.334Z,71.25
2023-02-14T00:40:10.332Z,71.55
2023-02-14T00:40:20.356Z,71.45
2023-02-14T00:40:30.356Z,71.95
2023-02-14T00:40:40.370Z,71.57
2023-02-14T00:40:50.385Z,71.83
2023-02-14T00:41:00.708Z,71.18
2023-02-14T00:41:10.383Z,71.66
2023-02-14T00:41:20.399Z,71.72
2023-02-14T00:41:30.389Z,70.47
2023-02-14T00:41:40.398Z,69.79
2023-02-14T00:41:50.385Z,68.71
2023-02-14T00:42:00.380Z,68.54
2023-02-14T00:42:10.384Z,68.36
2023-02-14T00:42:20.386Z,67.27
2023-02-14T00:42:30.382Z,66.23
2023-02-14T00:42:40.453Z,66.51
2023-02-14T00:42:50.371Z,65.68
2023-02-14T00:43:00.380Z,66.38
2023-02-14T00:43:10.377Z,66.00
2023-02-14T00:43:20.380Z,65.41
2023-02-14T00:43:30.382Z,65.24
2023-02-14T00:43:40.436Z,66.75
2023-02-14T00:43:50.369Z,66.03
2023-02-14T00:44:00.381Z,65.48
2023-02-14T00:44:10.374Z,65.63
2023-02-14T00:44:20.375Z,66.17
2023-02-14T00:44:30.388Z,66.81
2023-02-14T00:44:40.379Z,66.32
2023-02-14T00:44:50.392Z,66.79
2023-02-14T00:45:00.365Z,65.83
2023-02-14T00:45:10.353Z,65.35
2023-02-14T00:45:20.389Z,65.52
2023-02-14T00:45:30.372Z,63.97
2023-02-14T00:45:40.391Z,63.20
2023-02-14T00:45:50.409Z,63.44
2023-02-14T00:46:00.435Z,64.70
2023-02-14T00:46:10.427Z,66.03
2023-02-14T00:46:20.372Z,68.41
2023-02-14T00:46:30.381Z,68.72
2023-02-14T00:46:40.385Z,69.55
2023-02-14T00:46:50.397Z,70.55
2023-02-14T00:47:00.394Z,71.61
2023-02-14T00:47:10.375Z,72.63
2023-02-14T00:47:20.396Z,71.37
2023-02-14T00:47:30.393Z,72.47
2023-02-14T00:47:40.404Z,72.01
2023-02-14T00:47:50.465Z,71.85
2023-02-14T00:48:00.429Z,70.53
2023-02-14T00:48:10.417Z,70.70
2023-02-14T00:48:20.462Z,69.53
2023-02-14T00:48:30.483Z,69.14
2023-02-14T00:48:40.429Z,68.32
2023-02-14T00:48:50.477Z,69.62
2023-02-14T00:49:00.487Z,69.92
2023-02-14T00:49:10.494Z,70.28
2023-02-14T00:49:20.509Z,70.62
2023-02-14T00:49:30.492Z,69.98
2023-02-14T00:49:40.484Z,69.51
2023-02-14T00:49:50.519Z,70.47
2023-02-14T00:50:00.530Z,70.45
2023-02-14T00:50:10.521Z,71.82
2023-02-14T00:50:20.563Z,71.74
2023-02-14T00:50:30.564Z,71.16
2023-02-14T00:50:40.571Z,71.81
2023-02-14T00:50:50.589Z,71.27
2023-02-14T00:51:00.865Z,72.09
2023-02-14T00:51:10.577Z,73.51
2023-02-14T00:51:20.573Z,74.59
2023-02-14T00:51:30.579Z,74.05
2023-02-14T00:51:40.584Z,74.74
2023-02-14T00:51:50.604Z,73.24
2023-02-14T00:52:00.577Z,73.96
2023-02-14T00:52:10.576Z,73.74
2023-02-14T00:52:20.576Z,74.47
2023-02-14T00:52:30.586Z,75.77
2023-02-14T00:52:40.591Z,76.36
2023-02-14T00:52:50.631Z,75.88
2023-02-14T00:53:00.584Z,74.27
2023-02-14T00:53:10.597Z,72.35
2023-02-14T00:53:20.574Z,72.53
2023-02-14T00:53:30.601Z,71.02
2023-02-14T00:53:40.575Z,70.65
2023-02-14T00:53:50.568Z,68.65
2023-02-14T00:54:00.587Z,66.98
2023-02-14T00:54:10.568Z,65.36
2023-02-14T00:54:20.584Z,65.33
2023-02-14T00:54:30.570Z,64.69
2023-02-14T00:54:40.565Z,63.93
2023-02-14T00:54:50.567Z,63.60
2023-02-14T00:55:00.548Z,64.07
2023-02-14T00:55:10.577Z,63.45
2023-02-14T00:55:20.563Z,63.44
2023-02-14T00:55:30.573Z,61.93
2023-02-14T00:55:40.573Z,61.73
2023-02-14T00:55:50.570Z,61.40
2023-02-14T00:56:00.559Z,61.55
2023-02-14T00:56:10.551Z,59.49
2023-02-14T00:56:20.553Z,60.95
2023-02-14T00:56:30.566Z,62.43
2023-02-14T00:56:40.563Z,63.43
2023-02-14T00:56:50.568Z,64.93
2023-02-14T00:57:00.566Z,66.15
2023-02-14T00:57:10.588Z,66.25
2023-02-14T00:57:20.594Z,67.66
2023-02-14T00:57:30.587Z,69.16
2023-02-14T00:57:40.600Z,70.21
2023-02-14T00:57:50.619Z,70.26
2023-02-14T00:58:00.674Z,70.99
2023-02-14T00:58:10.616Z,71.77
2023-02-14T00:58:20.643Z,68.75
2023-02-14T00:58:30.633Z,67.82
2023-02-14T00:58:40.646Z,65.95
2023-02-14T00:58:50.657Z,63.34
2023-02-14T00:59:00.653Z,63.43
2023-02-14T00:59:10.680Z,62.94
2023-02-14T00:59:20.701Z,62.05
2023-02-14T00:59:30.670Z,61.15
2023-02-14T00:59:40.705Z,60.79
2023-02-14T00:59:50.732Z,61.81
2023-02-14T01:00:00.723Z,61.45
2023-02-14T01:00:10.721Z,59.81
2023-02-14T01:00:20.732Z,60.86
2023-02-14T01:00:30.798Z,60.49
2023-02-14T01:00:40.796Z,61.04
2023-02-14T01:00:50.817Z,61.68
2023-02-14T01:01:01.023Z,60.80
2023-02-14T01:01:10.833Z,59.93
2023-02-14T01:01:20.827Z,58.50
2023-02-14T01:01:30.765Z,57.99
2023-02-14T01:01:40.778Z,59.88
2023-02-14T01:01:50.753Z,58.20
2023-02-14T01:02:00.763Z,57.16
2023-02-14T01:02:10.804Z,55.03
2023-02-14T01:02:20.820Z,53.25
2023-02-14T01:02:30.791Z,50.98
2023-02-14T01:02:40.840Z,49.02
2023-02-14T01:02:50.798Z,47.38
2023-02-14T01:03:00.816Z,47.15
2023-02-14T01:03:10.759Z,48.78
2023-02-14T01:03:20.759Z,49.83
2023-02-14T01:03:30.775Z,50.14
2023-02-14T01:03:40.765Z,51.03
2023-02-14T01:03:50.762Z,51.44
2023-02-14T01:04:00.757Z,51.98
2023-02-14T01:04:10.755Z,53.37
2023-02-14T01:04:20.757Z,53.27
2023-02-14T01:04:30.768Z,53.65
2023-02-14T01:04:40.773Z,54.57
2023-02-14T01:04:50.773Z,53.78
2023-02-14T01:05:00.779Z,52.79
2023-02-14T01:05:10.753Z,53.06
2023-02-14T01:05:20.813Z,53.66
2023-02-14T01:05:30.774Z,54.37
2023-02-14T01:05:40.782Z,54.80
2023-02-14T01:05:50.801Z,55.19
2023-02-14T01:06:00.798Z,53.40
2023-02-14T01:06:10.819Z,54.73
2023-02-14T01:06:20.818Z,54.99
2023-02-14T01:06:30.810Z,54.74
2023-02-14T01:06:40.807Z,53.56
2023-02-14T01:06:50.844Z,53.45
2023-02-14T01:07:00.828Z,53.29
2023-02-14T01:07:10.834Z,53.84
2023-02-14T01:07:20.901Z,54.61
2023-02-14T01:07:30.879Z,55.33
2023-02-14T01:07:40.882Z,55.71
2023-02-14T01:07:50.898Z,55.18
2023-02-14T01:08:00.960Z,55.93
2023-02-14T01:08:10.888Z,55.77
2023-02-14T01:08:20.923Z,56.56
2023-02-14T01:08:30.925Z,57.11
2023-02-14T01:08:40.910Z,57.40
2023-02-14T01:08:50.960Z,57.05
2023-02-14T01:09:00.975Z,57.14
2023-02-14T01:09:10.928Z,57.50
2023-02-14T01:09:20.984Z,56.25
2023-02-14T01:09:30.977Z,56.44
2023-02-14T01:09:40.976Z,56.99
2023-02-14T01:09:51.003Z,57.50
2023-02-14T01:10:01.010Z,58.13
2023-02-14T01:10:11.004Z,58.38
2023-02-14T01:10:21.017Z,58.64
2023-02-14T01:10:31.022Z,58.05
2023-02-14T01:10:41.011Z,57.50
2023-02-14T01:10:51.058Z,57.83
2023-02-14T01:11:01.533Z,57.08
2023-02-14T01:11:11.062Z,55.97
2023-02-14T01:11:21.066Z,56.38
2023-02-14T01:11:31.051Z,55.81
2023-02-14T01:11:41.069Z,56.65
2023-02-14T01:11:51.060Z,57.09
2023-02-14T01:12:01.041Z,57.31
2023-02-14T01:12:11.056Z,56.58
2023-02-14T01:12:21.064Z,56.52
2023-02-14T01:12:31.056Z,57.85
2023-02-14T01:12:41.055Z,58.80
2023-02-14T01:12:51.037Z,59.48
2023-02-14T01:13:01.111Z,58.64
2023-02-14T01:13:11.049Z,58.84
2023-02-14T01:13:21.038Z,58.26
2023-02-14T01:13:31.036Z,58.35
2023-02-14T01:13:41.049Z,59.28
2023-02-14T01:13:51.054Z,58.72
2023-02-14T01:14:01.038Z,58.92
2023-02-14T01:14:11.051Z,59.14
2023-02-14T01:14:21.044Z,58.76
2023-02-14T01:14:31.055Z,57.76
2023-02-14T01:14:41.028Z,57.47
2023-02-14T01:14:51.042Z,54.91
2023-02-14T01:15:01.034Z,54.54
2023-02-14T01:15:11.021Z,53.35
2023-02-14T01:15:21.046Z,52.53
2023-02-14T01:15:31.035Z,51.04
2023-02-14T01:15:41.043Z,50.80
2023-02-14T01:15:51.048Z,50.82
2023-02-14T01:16:01.028Z,51.79
2023-02-14T01:16:11.152Z,51.83
2023-02-14T01:16:21.083Z,51.43
2023-02-14T01:16:31.098Z,52.51
2023-02-14T01:16:41.091Z,52.42
2023-02-14T01:16:51.117Z,53.44
2023-02-14T01:17:01.025Z,52.85
2023-02-14T01:17:11.040Z,52.92
2023-02-14T01:17:21.068Z,52.47
2023-02-14T01:17:31.054Z,53.24
2023-02-14T01:17:41.058Z,53.81
2023-02-14T01:17:51.110Z,54.14
2023-02-14T01:18:01.102Z,54.68
2023-02-14T01:18:11.149Z,54.49
2023-02-14T01:18:21.108Z,55.03
2023-02-14T01:18:31.122Z,55.44
2023-02-14T01:18:41.106Z,56.21
2023-02-14T01:18:51.131Z,55.05
2023-02-14T01:19:01.139Z,55.09
2023-02-14T01:19:11.138Z,54.59
2023-02-14T01:19:21.158Z,53.97
2023-02-14T01:19:31.152Z,54.73
2023-02-14T01:19:41.170Z,54.00
2023-02-14T01:19:51.186Z,54.28
2023-02-14T01:20:01.210Z,54.19
2023-02-14T01:20:11.188Z,54.47
2023-02-14T01:20:21.219Z,54.98
2023-02-14T01:20:31.225Z,55.69
2023-02-14T01:20:41.231Z,54.84
2023-02-14T01:20:51.261Z,54.08
2023-02-14T01:21:01.456Z,53.35
2023-02-14T01:21:11.228Z,53.59
2023-02-14T01:21:21.290Z,53.36
2023-02-14T01:21:31.261Z,52.98
2023-02-14T01:21:41.263Z,52.89
2023-02-14T01:21:51.313Z,53.51
2023-02-14T01:22:01.303Z,54.28
2023-02-14T01:22:11.305Z,54.43
2023-02-14T01:22:21.322Z,54.37
2023-02-14T01:22:31.307Z,54.62
2023-02-14T01:22:41.348Z,55.96
2023-02-14T01:22:51.327Z,58.65
2023-02-14T01:23:01.329Z,58.72
2023-02-14T01:23:11.375Z,58.88
2023-02-14T01:23:21.380Z,56.89
2023-02-14T01:23:31.373Z,54.46
2023-02-14T01:23:41.360Z,52.57
2023-02-14T01:23:51.390Z,49.10
2023-02-14T01:24:01.393Z,47.24
2023-02-14T01:24:11.403Z,44.81
2023-02-14T01:24:21.403Z,43.63
2023-02-14T01:24:31.409Z,42.82
2023-02-14T01:24:41.424Z,42.61
2023-02-14T01:24:51.428Z,42.53
2023-02-14T01:25:01.448Z,43.05
2023-02-14T01:25:11.428Z,43.72
2023-02-14T01:25:21.502Z,44.40
2023-02-14T01:25:31.459Z,44.32
2023-02-14T01:25:41.492Z,43.75
2023-02-14T01:25:51.504Z,43.53
2023-02-14T01:26:01.496Z,43.63
2023-02-14T01:26:11.494Z,43.70
2023-02-14T01:26:21.525Z,43.67
2023-02-14T01:26:31.515Z,43.86
2023-02-14T01:26:41.539Z,43.54
2023-02-14T01:26:51.534Z,43.68
2023-02-14T01:27:01.536Z,43.36
2023-02-14T01:27:11.556Z,44.09
2023-02-14T01:27:21.561Z,44.68
2023-02-14T01:27:31.574Z,45.38
2023-02-14T01:27:41.554Z,47.53
2023-02-14T01:27:51.594Z,47.95
2023-02-14T01:28:01.610Z,47.87
2023-02-14T01:28:11.662Z,48.16
2023-02-14T01:28:21.615Z,47.75
2023-02-14T01:28:31.683Z,48.12
2023-02-14T01:28:41.626Z,47.88
2023-02-14T01:28:51.640Z,48.49
2023-02-14T01:29:01.623Z,49.51
2023-02-14T01:29:11.644Z,49.72
2023-02-14T01:29:21.681Z,50.08
2023-02-14T01:29:31.668Z,50.80
2023-02-14T01:29:41.669Z,50.64
2023-02-14T01:29:51.727Z,51.52
2023-02-14T01:30:01.734Z,50.83
2023-02-14T01:30:11.727Z,51.78
2023-02-14T01:30:21.758Z,51.82
2023-02-14T01:30:31.707Z,53.23
2023-02-14T01:30:41.725Z,53.56
2023-02-14T01:30:51.769Z,55.44
2023-02-14T01:31:02.087Z,55.91
2023-02-14T01:31:11.814Z,56.51
2023-02-14T01:31:21.859Z,57.44
2023-02-14T01:31:31.854Z,58.09
2023-02-14T01:31:41.826Z,58.96
2023-02-14T01:31:51.753Z,59.10
2023-02-14T01:32:01.800Z,59.08
2023-02-14T01:32:11.798Z,58.72
2023-02-14T01:32:21.816Z,58.04
2023-02-14T01:32:31.747Z,58.23
2023-02-14T01:32:41.738Z,58.57
2023-02-14T01:32:51.746Z,60.64
2023-02-14T01:33:01.736Z,60.86
2023-02-14T01:33:11.792Z,62.04
2023-02-14T01:33:21.729Z,62.46
2023-02-14T01:33:31.749Z,62.53
2023-02-14T01:33:41.748Z,63.69
2023-02-14T01:33:51.750Z,65.75
2023-02-14T01:34:01.773Z,64.76
2023-02-14T01:34:11.767Z,64.74
2023-02-14T01:34:21.781Z,64.79
2023-02-14T01:34:31.791Z,65.53
2023-02-14T01:34:41.783Z,65.27
2023-02-14T01:34:51.788Z,66.54
2023-02-14T01:35:01.803Z,65.56
2023-02-14T01:35:11.796Z,66.60
2023-02-14T01:35:21.843Z,66.90
2023-02-14T01:35:31.822Z,69.31
2023-02-14T01:35:41.806Z,68.51
2023-02-14T01:35:51.864Z,68.54
2023-02-14T01:36:01.834Z,69.92
2023-02-14T01:36:11.852Z,70.10
2023-02-14T01:36:21.881Z,70.41
2023-02-14T01:36:31.868Z,71.89
2023-02-14T01:36:41.874Z,70.78
2023-02-14T01:36:51.902Z,70.98
2023-02-14T01:37:01.894Z,70.21
2023-02-14T01:37:11.890Z,68.57
2023-02-14T01:37:21.923Z,66.54
2023-02-14T01:37:31.907Z,66.10
2023-02-14T01:37:41.909Z,65.79
2023-02-14T01:37:51.961Z,65.39
2023-02-14T01:38:01.953Z,66.51
2023-02-14T01:38:12.006Z,66.23
2023-02-14T01:38:21.977Z,65.55
2023-02-14T01:38:31.987Z,65.43
2023-02-14T01:38:41.978Z,65.62
2023-02-14T01:38:52.008Z,63.79
2023-02-14T01:39:01.990Z,62.64
2023-02-14T01:39:12.002Z,62.56
2023-02-14T01:39:22.015Z,62.32
2023-02-14T01:39:32.020Z,61.25
2023-02-14T01:39:42.031Z,60.27
2023-02-14T01:39:52.056Z,60.84
2023-02-14T01:40:02.058Z,61.97
2023-02-14T01:40:12.059Z,61.11
2023-02-14T01:40:22.083Z,61.04
2023-02-14T01:40:32.074Z,60.32
2023-02-14T01:40:42.094Z,61.96
2023-02-14T01:40:52.112Z,61.70
2023-02-14T01:41:02.193Z,61.59
2023-02-14T01:41:12.103Z,61.58
2023-02-14T01:41:22.145Z,60.33
2023-02-14T01:41:32.136Z,58.47
2023-02-14T01:41:42.115Z,56.52
2023-02-14T01:41:52.172Z,54.73
2023-02-14T01:42:02.151Z,54.10
2023-02-14T01:42:12.141Z,53.29
2023-02-14T01:42:22.188Z,52.75
2023-02-14T01:42:32.180Z,52.72
2023-02-14T01:42:42.190Z,52.74
2023-02-14T01:42:52.200Z,52.52
2023-02-14T01:43:02.205Z,53.41
2023-02-14T01:43:12.256Z,53.33
2023-02-14T01:43:22.213Z,53.34
2023-02-14T01:43:32.243Z,52.92
2023-02-14T01:43:42.228Z,53.95
2023-02-14T01:43:52.270Z,53.55
2023-02-14T01:44:02.255Z,53.93
2023-02-14T01:44:12.254Z,54.86
2023-02-14T01:44:22.280Z,54.09
2023-02-14T01:44:32.280Z,53.15
2023-02-14T01:44:42.263Z,51.99
2023-02-14T01:44:52.301Z,51.16
2023-02-14T01:45:02.331Z,50.04
2023-02-14T01:45:12.296Z,49.08
2023-02-14T01:45:22.309Z,48.37
2023-02-14T01:45:32.397Z,47.82
2023-02-14T01:45:42.394Z,47.68
2023-02-14T01:45:52.431Z,46.54
2023-02-14T01:46:02.415Z,45.55
2023-02-14T01:46:12.409Z,44.20
2023-02-14T01:46:22.385Z,43.41
2023-02-14T01:46:32.378Z,42.06
2023-02-14T01:46:42.373Z,41.31
2023-02-14T01:46:52.408Z,40.05
2023-02-14T01:47:02.406Z,39.03
2023-02-14T01:47:12.390Z,37.67
2023-02-14T01:47:22.417Z,36.95
2023-02-14T01:47:32.426Z,36.37
2023-02-14T01:47:42.460Z,36.30
2023-02-14T01:47:52.461Z,36.04
2023-02-14T01:48:02.460Z,36.03
2023-02-14T01:48:12.526Z,35.82
2023-02-14T01:48:22.486Z,35.27
2023-02-14T01:48:32.473Z,34.78
2023-02-14T01:48:42.477Z,34.98
2023-02-14T01:48:52.505Z,34.68
2023-02-14T01:49:02.492Z,34.38
2023-02-14T01:49:12.491Z,33.77
2023-02-14T01:49:22.536Z,34.13
2023-02-14T01:49:32.538Z,34.80
2023-02-14T01:49:42.528Z,35.34
2023-02-14T01:49:52.566Z,35.86
2023-02-14T01:50:02.554Z,36.05
2023-02-14T01:50:12.567Z,36.60
2023-02-14T01:50:22.629Z,37.06
2023-02-14T01:50:32.592Z,37.51
2023-02-14T01:50:42.584Z,37.48
2023-02-14T01:50:52.599Z,37.69
2023-02-14T01:51:02.622Z,38.32
2023-02-14T01:51:12.611Z,39.17
2023-02-14T01:51:22.632Z,39.54
2023-02-14T01:51:32.652Z,40.10
2023-02-14T01:51:42.652Z,41.21
2023-02-14T01:51:52.649Z,40.64
2023-02-14T01:52:04.271Z,40.77
2023-02-14T01:52:12.668Z,41.44
2023-02-14T01:52:22.652Z,40.59
2023-02-14T01:52:32.668Z,40.11
2023-02-14T01:52:42.678Z,38.01
2023-02-14T01:52:52.653Z,36.30
2023-02-14T01:53:02.677Z,35.84
2023-02-14T01:53:12.726Z,34.40
2023-02-14T01:53:22.676Z,34.30
2023-02-14T01:53:32.640Z,34.55
2023-02-14T01:53:42.637Z,35.34
2023-02-14T01:53:52.641Z,35.46
2023-02-14T01:54:02.645Z,35.95
2023-02-14T01:54:12.658Z,36.06
2023-02-14T01:54:22.642Z,36.68
2023-02-14T01:54:32.689Z,37.00
2023-02-14T01:54:42.641Z,37.45
2023-02-14T01:54:52.653Z,37.15
2023-02-14T01:55:02.645Z,37.24
2023-02-14T01:55:12.648Z,37.35
2023-02-14T01:55:22.641Z,37.86
2023-02-14T01:55:32.628Z,39.16
2023-02-14T01:55:42.639Z,39.27
2023-02-14T01:55:52.644Z,39.81
2023-02-14T01:56:02.634Z,39.92
2023-02-14T01:56:12.651Z,39.74
2023-02-14T01:56:22.641Z,40.83
2023-02-14T01:56:32.648Z,41.14
2023-02-14T01:56:42.654Z,40.40
2023-02-14T01:56:52.640Z,39.56
2023-02-14T01:57:02.632Z,39.30
2023-02-14T01:57:12.636Z,38.68
2023-02-14T01:57:22.653Z,37.87
2023-02-14T01:57:32.645Z,38.03
2023-02-14T01:57:42.633Z,37.46
2023-02-14T01:57:52.662Z,36.95
2023-02-14T01:58:02.647Z,35.87
2023-02-14T01:58:12.655Z,34.72
2023-02-14T01:58:22.670Z,34.35
2023-02-14T01:58:32.630Z,34.76
2023-02-14T01:58:42.641Z,35.16
2023-02-14T01:58:52.638Z,36.14
2023-02-14T01:59:02.632Z,37.51
2023-02-14T01:59:12.637Z,38.27
2023-02-14T01:59:22.653Z,38.53
2023-02-14T01:59:32.635Z,39.19
2023-02-14T01:59:42.645Z,40.21
2023-02-14T01:59:52.633Z,41.00
2023-02-14T02:00:02.636Z,41.42
2023-02-14T02:00:12.651Z,42.00
2023-02-14T02:00:22.631Z,42.22
2023-02-14T02:00:32.624Z,43.03
2023-02-14T02:00:42.669Z,43.01
2023-02-14T02:00:52.654Z,43.42
2023-02-14T02:01:02.964Z,43.39
2023-02-14T02:01:12.659Z,43.69
2023-02-14T02:01:22.620Z,43.54
2023-02-14T02:01:32.705Z,45.72
2023-02-14T02:01:42.654Z,45.15
2023-02-14T02:01:52.624Z,45.26
2023-02-14T02:02:02.661Z,45.82
2023-02-14T02:02:12.701Z,45.42
2023-02-14T02:02:22.700Z,44.55
2023-02-14T02:02:32.681Z,44.35
2023-02-14T02:02:42.665Z,43.98
2023-02-14T02:02:52.623Z,43.48
2023-02-14T02:03:02.638Z,43.01
2023-02-14T02:03:12.612Z,42.32
2023-02-14T02:03:22.673Z,41.29
2023-02-14T02:03:32.617Z,42.23
2023-02-14T02:03:42.638Z,41.12
2023-02-14T02:03:52.618Z,41.70
2023-02-14T02:04:02.615Z,42.03
2023-02-14T02:04:12.637Z,42.09
2023-02-14T02:04:22.624Z,42.29
2023-02-14T02:04:32.621Z,42.50
2023-02-14T02:04:42.628Z,42.46
2023-02-14T02:04:52.627Z,41.68
2023-02-14T02:05:02.619Z,42.05
2023-02-14T02:05:12.620Z,42.76
2023-02-14T02:05:22.612Z,43.24
2023-02-14T02:05:32.630Z,44.20
2023-02-14T02:05:42.654Z,45.51
2023-02-14T02:05:52.646Z,46.19
2023-02-14T02:06:02.617Z,46.10
2023-02-14T02:06:12.644Z,47.21
2023-02-14T02:06:22.631Z,47.22
2023-02-14T02:06:32.629Z,46.34
2023-02-14T02:06:42.609Z,47.56
2023-02-14T02:06:52.613Z,47.49
2023-02-14T02:07:02.613Z,47.96
2023-02-14T02:07:12.612Z,48.23
2023-02-14T02:07:22.634Z,48.95
2023-02-14T02:07:32.619Z,48.35
2023-02-14T02:07:42.599Z,49.42
2023-02-14T02:07:52.596Z,50.89
2023-02-14T02:08:02.603Z,53.80
2023-02-14T02:08:12.613Z,54.78
2023-02-14T02:08:22.610Z,56.33
2023-02-14T02:08:32.631Z,58.55
2023-02-14T02:08:42.602Z,59.77